Time;durP1;ratioP1;P1;durP2;ratioP2;P2;SDS_P1;SDS_P2;PMS_P1;PMS_P2;Temp;Humidity;BMP_temperature;BMP_pressure;BME280_temperature;BME280_humidity;BME280_pressure;Samples;Min_cycle;Max_cycle;Signal;HPM_P1;HPM_P2
2022/02/03 00:00:42;;;;;;;9.07;5.75;;;;;;;5.14;92.42;98054.00;5094962;28;20481;-61
2022/02/03 00:03:36;;;;;;;10.52;6.15;;;;;;;5.20;92.76;98060.41;5086579;28;20033;-61
2022/02/03 00:06:09;;;;;;;11.15;6.50;;;;;;;5.26;92.86;98058.75;5086169;28;20048;-61
2022/02/03 00:22:11;;;;;;;12.23;6.55;;;;;;;5.01;93.79;98057.44;5088305;28;20078;-62
2022/02/03 00:25:02;;;;;;;10.32;6.28;;;;;;;4.97;94.67;98058.03;5070438;28;20512;-62
2022/02/03 00:30:16;;;;;;;10.45;6.45;;;;;;;5.04;95.00;98048.13;5075781;28;20052;-62
2022/02/03 00:33:09;;;;;;;11.60;6.75;;;;;;;5.04;94.56;98051.66;5087167;28;20048;-62
2022/02/03 00:49:11;;;;;;;9.43;5.70;;;;;;;5.26;94.46;98054.22;5077127;28;20047;-62
2022/02/03 00:51:43;;;;;;;8.25;5.15;;;;;;;5.28;94.63;98054.03;5082415;28;20036;-62
2022/02/03 00:54:11;;;;;;;8.98;5.15;;;;;;;5.35;94.34;98046.84;5074407;28;20047;-62
2022/02/03 00:56:43;;;;;;;7.85;4.93;;;;;;;5.37;94.30;98049.31;5066739;28;20040;-61
2022/02/03 00:59:18;;;;;;;9.80;5.65;;;;;;;5.47;93.98;98050.59;5089163;28;20502;-61
2022/02/03 01:01:48;;;;;;;8.60;5.85;;;;;;;5.58;93.39;98045.66;5101907;28;20036;-61
2022/02/03 01:04:16;;;;;;;8.35;4.50;;;;;;;5.66;92.67;98039.25;5068920;28;20550;-60
2022/02/03 01:06:50;;;;;;;7.43;4.13;;;;;;;5.66;92.92;98048.16;5084226;28;20403;-59
2022/02/03 01:09:20;;;;;;;6.40;3.85;;;;;;;5.77;92.34;98044.03;5070876;28;20040;-61
2022/02/03 01:11:51;;;;;;;7.90;4.38;;;;;;;5.62;92.84;98040.69;5071989;28;20036;-60
2022/02/03 01:14:41;;;;;;;6.55;3.75;;;;;;;5.59;93.12;98041.94;5087009;28;20036;-59
2022/02/03 01:44:46;;;;;;;3.83;2.20;;;;;;;5.67;91.28;98020.25;5080543;28;20047;-62
2022/02/03 01:47:48;;;;;;;4.20;2.10;;;;;;;5.64;91.05;98012.59;5085587;28;20043;-62
2022/02/03 01:52:52;;;;;;;4.40;2.08;;;;;;;5.69;90.90;98014.69;5084532;28;20094;-63
2022/02/03 01:55:21;;;;;;;2.75;1.52;;;;;;;5.67;90.46;98004.13;5086150;28;20664;-62
2022/02/03 01:57:51;;;;;;;3.30;1.60;;;;;;;5.66;91.02;98005.16;5075260;28;20036;-62
2022/02/03 02:00:21;;;;;;;3.45;1.85;;;;;;;5.54;91.26;98002.28;5097111;28;20089;-62
2022/02/03 02:03:04;;;;;;;3.50;1.70;;;;;;;5.65;90.91;98013.44;5081901;28;20040;-61
2022/02/03 02:05:55;;;;;;;3.13;1.58;;;;;;;5.68;90.62;98019.22;5080281;28;20044;-63
2022/02/03 02:08:37;;;;;;;4.43;1.98;;;;;;;5.65;90.94;98016.97;5075009;28;20106;-63
2022/02/03 02:11:34;;;;;;;3.25;1.58;;;;;;;5.38;91.59;98014.19;5067042;28;20656;-63
2022/02/03 02:36:53;;;;;;;3.72;1.80;;;;;;;4.83;93.60;98004.28;5083017;28;20089;-62
2022/02/03 02:37:14;;;;;;;5.50;2.65;;;;;;;4.68;94.83;98010.59;5080172;28;20112;-61
2022/02/03 02:42:44;;;;;;;5.72;3.30;;;;;;;5.13;93.73;97995.97;5076245;28;20044;-61
2022/02/03 02:45:14;;;;;;;7.22;3.53;;;;;;;5.36;92.86;98007.38;5085003;28;20039;-62
2022/02/03 02:48:10;;;;;;;6.18;3.55;;;;;;;5.45;92.11;98003.47;5082578;28;20056;-59
2022/02/03 02:50:53;;;;;;;6.65;3.83;;;;;;;5.28;91.72;97993.13;5065515;28;20687;-61
2022/02/03 02:54:57;;;;;;;6.22;3.00;;;;;;;5.32;91.76;97990.84;5086153;28;20044;-61
2022/02/03 03:35:54;;;;;;;6.78;3.67;;;;;;;4.64;94.15;97952.22;5081972;28;20048;-62
2022/02/03 03:38:24;;;;;;;6.22;3.45;;;;;;;4.52;94.49;97950.06;5088715;28;20048;-61
2022/02/03 03:40:54;;;;;;;7.00;3.63;;;;;;;4.54;94.55;97947.19;5072623;28;20044;-62
2022/02/03 03:43:37;;;;;;;6.88;3.72;;;;;;;4.47;94.58;97949.84;5088743;28;20576;-62
2022/02/03 03:46:30;;;;;;;7.57;4.00;;;;;;;4.54;94.67;97956.06;5085900;28;20069;-61
2022/02/03 03:49:13;;;;;;;7.38;3.50;;;;;;;4.45;94.57;97945.72;5085818;28;20048;-61
2022/02/03 03:51:49;;;;;;;7.30;3.97;;;;;;;4.25;94.62;97947.25;5088489;28;20040;-62
2022/02/03 03:54:30;;;;;;;7.38;3.75;;;;;;;4.24;94.54;97948.25;5083829;28;20500;-62
2022/02/03 04:30:36;;;;;;;6.65;3.92;;;;;;;5.05;92.20;97923.66;5087969;28;20460;-62
2022/02/03 04:38:54;;;;;;;5.63;3.30;;;;;;;5.29;90.81;97919.59;5080359;28;20059;-62
2022/02/03 05:24:02;;;;;;;6.50;3.53;;;;;;;4.87;92.34;97886.66;5066721;28;20040;-62
2022/02/03 05:44:22;;;;;;;7.10;3.97;;;;;;;4.93;91.51;97859.00;5084225;28;20047;-62
2022/02/03 05:54:56;;;;;;;7.32;4.57;;;;;;;4.49;93.76;97845.88;5085701;28;20048;-62
2022/02/03 06:21:29;;;;;;;7.10;3.90;;;;;;;4.26;93.85;97863.13;5076124;28;20105;-61
2022/02/03 06:24:14;;;;;;;7.97;4.45;;;;;;;4.29;95.00;97856.53;5070457;28;20155;-62
2022/02/03 06:29:29;;;;;;;6.50;3.83;;;;;;;4.23;94.22;97844.75;5089773;28;20054;-62
2022/02/03 06:31:56;;;;;;;7.28;3.78;;;;;;;4.27;94.63;97834.44;5089508;28;20101;-61
2022/02/03 06:34:23;;;;;;;7.43;4.07;;;;;;;4.30;94.50;97836.72;5080115;28;20055;-61
2022/02/03 06:36:51;;;;;;;10.20;4.80;;;;;;;4.28;94.43;97823.53;5080241;28;20047;-61
2022/02/03 06:39:27;;;;;;;7.60;3.72;;;;;;;4.10;94.05;97825.94;5081345;28;20052;-62
2022/02/03 06:41:57;;;;;;;9.15;4.10;;;;;;;3.90;94.66;97832.84;5077801;28;20589;-62
2022/02/03 06:44:32;;;;;;;7.90;3.67;;;;;;;3.90;94.68;97829.31;5068761;28;20047;-62
2022/02/03 06:47:05;;;;;;;8.35;3.92;;;;;;;3.96;94.87;97831.22;5077000;28;20055;-62
2022/02/03 06:52:10;;;;;;;6.22;3.85;;;;;;;4.11;95.47;97838.28;5071973;28;20043;-62
2022/02/03 06:54:55;;;;;;;9.93;4.22;;;;;;;4.01;94.96;97836.81;5076040;28;20036;-62
2022/02/03 06:57:30;;;;;;;6.63;3.70;;;;;;;3.99;94.96;97830.84;5071978;28;20428;-66
2022/02/03 07:00:05;;;;;;;6.80;3.25;;;;;;;4.13;95.09;97834.38;5079924;28;20044;-66
2022/02/03 07:02:37;;;;;;;7.78;4.25;;;;;;;4.28;94.75;97839.59;5086381;28;20064;-66
2022/02/03 07:05:04;;;;;;;9.48;4.28;;;;;;;4.28;94.90;97846.84;5074549;28;20082;-66
2022/02/03 07:07:30;;;;;;;7.28;4.05;;;;;;;4.40;95.47;97839.88;5070392;28;20047;-67
2022/02/03 07:09:57;;;;;;;8.77;4.22;;;;;;;4.46;94.64;97848.94;5082221;28;20079;-66
2022/02/03 07:12:23;;;;;;;6.55;3.80;;;;;;;4.35;94.31;97844.19;5086576;28;20063;-67
2022/02/03 07:14:50;;;;;;;6.82;3.75;;;;;;;4.38;94.58;97849.13;5070721;28;20504;-66
2022/02/03 07:17:17;;;;;;;6.60;3.90;;;;;;;4.44;94.41;97851.03;5075416;28;20147;-65
2022/02/03 07:19:47;;;;;;;8.27;4.55;;;;;;;4.55;95.70;97845.09;5064370;28;20052;-66
2022/02/03 07:22:15;;;;;;;7.13;3.90;;;;;;;4.57;95.04;97839.50;5078155;28;20047;-66
2022/02/03 07:24:46;;;;;;;;;;;;;;;4.63;95.69;97841.41;5085718;28;20047;-67
2022/02/03 07:27:12;;;;;;;9.63;4.55;;;;;;;4.72;95.59;97833.16;5073133;28;19920;-67
2022/02/03 07:29:39;;;;;;;12.20;4.78;;;;;;;4.75;94.93;97832.75;5081134;28;20048;-66
2022/02/03 07:32:06;;;;;;;7.68;4.50;;;;;;;4.82;95.44;97826.38;5072349;28;20040;-66
2022/02/03 07:34:33;;;;;;;8.27;4.75;;;;;;;4.69;93.80;97816.44;5067030;28;20044;-66
2022/02/03 07:36:59;;;;;;;9.25;4.85;;;;;;;4.78;95.18;97814.41;5080104;28;20047;-67
2022/02/03 07:39:26;;;;;;;8.45;4.60;;;;;;;4.80;94.47;97806.97;5068835;28;20063;-66
2022/02/03 07:41:53;;;;;;;8.63;4.72;;;;;;;4.76;94.12;97807.59;5079749;28;20044;-65
2022/02/03 07:44:19;;;;;;;7.85;4.43;;;;;;;4.72;93.80;97803.66;5074453;28;20687;-57
2022/02/03 07:46:46;;;;;;;7.60;4.07;;;;;;;4.77;93.64;97798.50;5089625;28;20043;-57
2022/02/03 07:49:12;;;;;;;7.78;4.30;;;;;;;4.81;93.70;97808.63;5075859;28;20151;-57
2022/02/03 07:51:39;;;;;;;8.68;4.15;;;;;;;4.80;93.36;97812.31;5065347;28;20052;-57
2022/02/03 07:54:08;;;;;;;7.18;3.70;;;;;;;4.88;94.11;97810.50;5084253;28;20047;-57
2022/02/03 07:56:35;;;;;;;7.60;4.47;;;;;;;4.89;93.44;97796.88;5084273;28;20050;-57
2022/02/03 07:59:02;;;;;;;8.73;4.88;;;;;;;4.82;93.65;97788.81;5077545;28;20036;-54
2022/02/03 08:01:29;;;;;;;8.35;5.00;;;;;;;4.86;94.01;97789.22;5081686;28;20054;-57
2022/02/03 08:03:57;;;;;;;7.63;4.60;;;;;;;4.93;94.40;97781.19;5084028;28;20411;-56
2022/02/03 08:06:28;;;;;;;6.47;4.38;;;;;;;4.98;93.70;97769.84;5074138;28;20115;-57
2022/02/03 08:09:03;;;;;;;7.22;3.47;;;;;;;5.07;93.76;97773.97;5084124;28;20048;-56
2022/02/03 08:11:36;;;;;;;7.80;4.43;;;;;;;5.10;93.11;97762.81;5086534;28;20744;-58
2022/02/03 08:14:14;;;;;;;5.97;3.65;;;;;;;5.14;92.88;97768.59;5082424;28;20039;-57
2022/02/03 08:19:17;;;;;;;5.82;3.47;;;;;;;5.34;92.27;97753.28;5067919;28;20086;-56
2022/02/03 08:21:49;;;;;;;7.60;3.55;;;;;;;5.51;91.66;97747.50;5084743;28;20047;-58
2022/02/03 08:24:23;;;;;;;5.28;3.38;;;;;;;5.67;91.37;97742.69;5078832;28;20612;-68
2022/02/03 08:30:06;;;;;;;4.70;3.00;;;;;;;5.91;89.89;97734.97;5085838;28;20044;-68
2022/02/03 08:32:27;;;;;;;5.15;2.72;;;;;;;5.99;88.28;97740.09;5085985;28;20048;-71
2022/02/03 08:37:28;;;;;;;5.05;3.25;;;;;;;6.03;87.98;97752.13;5084257;28;20598;-68
2022/02/03 08:40:07;;;;;;;5.38;3.10;;;;;;;6.05;87.37;97759.97;5080074;28;20093;-67
2022/02/03 08:42:34;;;;;;;6.53;2.65;;;;;;;6.11;86.77;97751.88;5080658;28;20495;-68
2022/02/03 08:45:00;;;;;;;4.82;2.67;;;;;;;6.17;87.27;97744.00;5085600;28;20085;-69
2022/02/03 08:47:27;;;;;;;4.93;1.95;;;;;;;6.24;86.85;97748.28;5085391;28;20040;-70
2022/02/03 08:49:53;;;;;;;3.90;2.20;;;;;;;6.43;86.21;97737.66;5086248;28;20048;-74
2022/02/03 08:52:27;;;;;;;4.55;2.30;;;;;;;6.44;86.47;97736.59;5067115;28;20047;-67
2022/02/03 08:54:59;;;;;;;4.53;2.30;;;;;;;6.41;86.48;97720.88;5067787;28;20048;-69
2022/02/03 08:57:40;;;;;;;4.80;3.08;;;;;;;6.50;87.43;97719.59;5066438;28;20037;-71
2022/02/03 10:03:11;;;;;;;3.42;1.85;;;;;;;7.31;81.69;97658.88;5077291;28;20450;-72
2022/02/03 10:05:55;;;;;;;3.63;1.30;;;;;;;7.58;80.82;97660.44;5082564;28;20035;-64
2022/02/03 10:08:21;;;;;;;2.58;1.55;;;;;;;7.48;80.72;97667.16;5084929;28;20048;-67
2022/02/03 10:10:48;;;;;;;2.75;1.50;;;;;;;7.59;80.69;97654.81;5092758;28;20062;-66
2022/02/03 10:13:21;;;;;;;2.42;1.30;;;;;;;7.80;80.31;97650.84;5083908;28;20075;-67
2022/02/03 10:16:03;;;;;;;2.42;1.40;;;;;;;8.00;80.12;97646.25;5093725;28;20051;-66
2022/02/03 10:18:31;;;;;;;3.00;1.50;;;;;;;8.23;79.35;97636.56;5098338;28;20051;-65
2022/02/03 10:21:00;;;;;;;3.05;1.48;;;;;;;7.79;79.97;97629.50;5077631;28;20115;-67
2022/02/03 10:23:29;;;;;;;3.33;1.90;;;;;;;7.85;80.45;97620.50;5082353;28;20040;-66
2022/02/03 10:26:09;;;;;;;3.08;1.58;;;;;;;8.01;81.27;97619.06;5078829;28;20107;-66
2022/02/03 10:28:37;;;;;;;4.72;2.45;;;;;;;8.01;81.19;97624.44;5077507;28;20088;-66
2022/02/03 10:31:05;;;;;;;5.28;2.25;;;;;;;8.08;81.53;97618.94;5083046;28;20048;-66
2022/02/03 10:33:37;;;;;;;5.05;2.30;;;;;;;8.25;80.86;97599.41;5082686;28;20052;-66
2022/02/03 10:36:15;;;;;;;5.65;2.60;;;;;;;8.39;79.55;97584.66;5080104;28;20048;-65
2022/02/03 11:03:19;;;;;;;4.18;2.00;;;;;;;8.19;78.67;97558.81;5072522;28;20056;-66
2022/02/03 11:08:22;;;;;;;3.92;2.28;;;;;;;7.61;79.72;97550.34;5072118;28;20071;-67
2022/02/03 11:10:55;;;;;;;3.45;2.10;;;;;;;7.64;79.65;97533.72;5081383;28;20048;-65
2022/02/03 11:13:24;;;;;;;5.50;2.03;;;;;;;7.82;79.81;97523.91;5079614;28;20098;-66
2022/02/03 11:15:53;;;;;;;5.85;2.47;;;;;;;7.88;79.91;97522.16;5075634;28;20044;-68
2022/02/03 11:18:24;;;;;;;3.78;2.15;;;;;;;7.56;80.62;97525.94;5077434;28;20449;-67
2022/02/03 11:20:51;;;;;;;3.80;2.25;;;;;;;7.49;79.51;97525.22;5075186;28;20690;-67
2022/02/03 11:23:33;;;;;;;4.00;2.17;;;;;;;7.49;80.19;97515.22;5084343;28;20055;-67
2022/02/03 11:50:34;;;;;;;5.13;2.42;;;;;;;7.66;78.96;97466.91;5081239;28;20068;-65
2022/02/03 12:01:49;;;;;;;3.67;2.10;;;;;;;7.29;79.74;97438.22;5099089;28;20043;-69
2022/02/03 12:16:23;;;;;;;3.35;1.70;;;;;;;7.60;78.32;97442.75;5086793;28;20611;-66
2022/02/03 12:22:02;;;;;;;3.53;1.90;;;;;;;7.31;79.43;97435.31;5089700;28;20502;-71
2022/02/03 12:24:48;;;;;;;5.25;1.75;;;;;;;7.62;79.55;97419.09;5082726;28;20044;-66
2022/02/03 12:27:35;;;;;;;2.97;1.70;;;;;;;7.96;77.33;97413.16;5087438;28;20627;-67
2022/02/03 12:30:16;;;;;;;4.25;2.10;;;;;;;7.76;79.05;97406.22;5078445;28;20040;-67
2022/02/03 12:38:51;;;;;;;4.72;1.80;;;;;;;8.21;76.82;97380.53;5046293;28;20057;-65
2022/02/03 12:41:21;;;;;;;2.80;1.45;;;;;;;8.08;76.30;97354.66;5077532;28;20055;-66
2022/02/03 12:44:00;;;;;;;3.22;1.60;;;;;;;8.11;77.44;97353.38;5080880;28;20036;-69
2022/02/03 12:46:28;;;;;;;3.17;1.30;;;;;;;8.24;75.61;97346.88;5078405;28;20056;-64
2022/02/03 12:48:56;;;;;;;3.72;1.55;;;;;;;8.45;74.82;97357.03;5078256;28;20123;-65
2022/02/03 12:51:23;;;;;;;3.92;1.92;;;;;;;7.89;75.97;97367.44;5086435;28;20044;-70
2022/02/03 12:53:50;;;;;;;3.15;1.75;;;;;;;7.49;76.76;97363.56;5083816;28;20608;-68
2022/02/03 12:56:22;;;;;;;3.38;1.55;;;;;;;7.30;78.43;97355.56;5080707;28;20047;-65
2022/02/03 12:58:59;;;;;;;2.78;1.35;;;;;;;7.47;77.57;97353.00;5083838;28;20032;-71
2022/02/03 13:01:32;;;;;;;5.60;1.95;;;;;;;7.36;77.37;97359.19;5078875;28;20093;-66
2022/02/03 13:04:03;;;;;;;2.90;1.63;;;;;;;7.43;78.43;97351.81;5079801;28;20512;-69
2022/02/03 13:06:31;;;;;;;3.38;1.58;;;;;;;7.50;78.42;97338.25;5088674;28;20055;-66
2022/02/03 13:09:01;;;;;;;4.10;1.70;;;;;;;7.27;77.92;97335.28;5081525;28;20048;-70
2022/02/03 13:11:37;;;;;;;3.33;1.65;;;;;;;7.30;78.84;97344.78;5082691;28;20058;-69
2022/02/03 13:14:37;;;;;;;2.97;1.42;;;;;;;7.34;78.56;97350.53;5084279;28;20040;-71
2022/02/03 13:20:04;;;;;;;5.43;2.00;;;;;;;7.36;77.93;97310.69;5094678;28;20761;-70
2022/02/03 13:22:46;;;;;;;4.28;2.03;;;;;;;7.21;79.00;97309.28;5099253;28;20043;-67
2022/02/03 13:28:07;;;;;;;4.25;2.22;;;;;;;7.44;78.70;97296.09;5086011;28;20040;-66
2022/02/03 13:30:51;;;;;;;5.28;1.70;;;;;;;7.37;78.24;97306.97;5073597;28;20569;-68
2022/02/03 13:33:24;;;;;;;3.70;1.85;;;;;;;7.58;77.46;97308.25;5072737;28;20045;-66
2022/02/03 13:35:56;;;;;;;3.92;1.52;;;;;;;7.32;78.79;97302.28;5079011;28;20044;-66
2022/02/03 13:38:38;;;;;;;3.65;1.95;;;;;;;7.31;78.81;97300.63;5066503;28;20094;-66
2022/02/03 13:41:18;;;;;;;3.75;2.00;;;;;;;7.35;79.21;97292.91;5085724;28;20527;-71
2022/02/03 13:43:45;;;;;;;4.72;2.03;;;;;;;7.27;79.39;97292.19;5069291;28;20048;-71
2022/02/03 13:46:27;;;;;;;4.53;1.70;;;;;;;7.38;79.06;97287.84;5066623;28;20431;-67
2022/02/03 13:48:54;;;;;;;3.97;1.70;;;;;;;7.52;78.85;97274.97;5085131;28;20492;-68
2022/02/03 13:51:30;;;;;;;5.15;1.80;;;;;;;7.63;78.03;97278.72;5075060;28;20503;-65
2022/02/03 14:27:17;;;;;;;2.63;1.42;;;;;;;7.67;76.90;97281.78;5079085;28;20044;-70
2022/02/03 14:29:53;;;;;;;3.22;1.40;;;;;;;7.67;76.89;97295.28;5070301;28;20119;-65
2022/02/03 14:32:35;;;;;;;2.97;1.45;;;;;;;7.85;75.50;97288.09;5078299;28;20466;-68
2022/02/03 14:35:06;;;;;;;2.83;1.50;;;;;;;7.50;77.73;97287.88;5085410;28;20043;-69
2022/02/03 14:42:29;;;;;;;2.38;1.15;;;;;;;7.49;77.58;97277.34;5065031;28;20127;-66
2022/02/03 14:44:56;;;;;;;3.22;1.75;;;;;;;7.45;78.52;97276.16;5074316;28;20044;-67
2022/02/03 14:47:27;;;;;;;3.97;1.50;;;;;;;7.41;79.03;97270.44;5083603;28;20067;-65
2022/02/03 14:49:54;;;;;;;3.10;1.58;;;;;;;7.43;78.50;97254.84;5085039;28;20047;-67
2022/02/03 15:00:27;;;;;;;5.63;1.77;;;;;;;7.08;79.54;97234.09;5087131;28;20055;-66
2022/02/03 15:02:55;;;;;;;3.28;1.52;;;;;;;7.08;79.98;97240.28;5076359;28;20051;-66
2022/02/03 15:05:25;;;;;;;4.22;1.83;;;;;;;7.10;79.66;97238.22;5096703;28;20046;-67
2022/02/03 15:08:02;;;;;;;3.45;1.63;;;;;;;7.15;79.46;97262.56;5088254;28;20128;-66
2022/02/03 15:13:09;;;;;;;;;;;;;;;7.22;79.25;97250.88;5083809;28;20113;-72
2022/02/03 15:15:36;;;;;;;7.95;2.35;;;;;;;7.16;79.32;97252.63;5079265;28;19953;-65
2022/02/03 15:18:03;;;;;;;7.38;1.98;;;;;;;7.14;79.97;97255.53;5083225;28;20048;-70
2022/02/03 15:20:31;;;;;;;7.07;2.03;;;;;;;7.16;79.76;97252.63;5086443;28;20085;-68
2022/02/03 15:22:57;;;;;;;6.07;1.73;;;;;;;7.28;79.37;97248.06;5080452;28;20052;-70
2022/02/03 15:25:24;;;;;;;6.68;2.20;;;;;;;7.34;80.08;97248.97;5084966;28;20048;-74
2022/02/03 15:27:51;;;;;;;6.82;2.13;;;;;;;7.34;79.97;97243.59;5076642;28;20500;-66
2022/02/03 15:30:17;;;;;;;6.05;1.75;;;;;;;7.45;79.36;97250.06;5068995;28;20054;-72
2022/02/03 15:32:45;;;;;;;4.50;1.90;;;;;;;7.55;78.07;97250.28;5079462;28;20040;-66
2022/02/03 15:35:24;;;;;;;4.57;2.15;;;;;;;7.60;78.28;97259.53;5088138;28;20036;-72
2022/02/03 15:37:52;;;;;;;5.13;2.30;;;;;;;7.57;78.01;97250.03;5085635;28;20507;-68
2022/02/03 15:40:23;;;;;;;7.28;2.17;;;;;;;7.59;78.44;97255.19;5077533;28;20563;-67
2022/02/03 15:43:00;;;;;;;3.90;2.00;;;;;;;7.62;78.56;97255.53;5088373;28;20137;-66
2022/02/03 15:45:33;;;;;;;3.45;1.80;;;;;;;7.57;78.55;97260.81;5086601;28;20053;-69
2022/02/03 15:48:05;;;;;;;4.32;2.03;;;;;;;7.60;78.49;97251.44;5088369;28;20047;-72
2022/02/03 16:02:44;;;;;;;3.45;1.88;;;;;;;7.38;79.15;97242.06;5093784;28;20052;-65
2022/02/03 16:17:49;;;;;;;6.00;3.00;;;;;;;6.92;81.53;97217.56;5085598;28;20040;-66
2022/02/03 16:20:24;;;;;;;5.55;2.90;;;;;;;7.06;81.39;97218.19;5087089;28;20092;-66
2022/02/03 16:25:48;;;;;;;5.72;2.38;;;;;;;6.98;81.89;97224.75;5087719;28;20044;-66
2022/02/03 16:40:56;;;;;;;7.50;3.25;;;;;;;6.81;84.57;97245.31;5086309;28;20051;-67
2022/02/03 16:53:08;;;;;;;9.93;7.22;;;;;;;6.53;85.57;97233.28;5075457;28;20043;-62
2022/02/03 16:55:37;;;;;;;6.13;3.70;;;;;;;6.61;85.32;97232.97;5079236;28;20044;-62
2022/02/03 16:58:06;;;;;;;8.05;5.43;;;;;;;6.62;84.56;97231.91;5078998;28;20040;-63
2022/02/03 17:00:33;;;;;;;6.03;3.97;;;;;;;6.59;85.33;97243.13;5080435;28;20051;-61
2022/02/03 17:03:00;;;;;;;5.28;3.08;;;;;;;6.58;85.17;97242.31;5080914;28;20412;-61
2022/02/03 17:05:28;;;;;;;5.85;3.70;;;;;;;6.55;85.58;97240.06;5087965;28;20073;-59
2022/02/03 17:07:55;;;;;;;25.08;18.02;;;;;;;6.42;86.61;97237.59;5082164;28;20118;-58
2022/02/03 17:10:22;;;;;;;25.15;17.80;;;;;;;6.35;85.63;97226.91;5077444;28;20137;-67
2022/02/03 17:12:49;;;;;;;6.85;4.60;;;;;;;6.26;86.66;97236.34;5082008;28;20028;-60
2022/02/03 17:15:18;;;;;;;4.82;3.40;;;;;;;6.15;87.38;97236.06;5080684;28;20123;-60
2022/02/03 17:17:50;;;;;;;6.00;3.42;;;;;;;6.08;87.70;97230.78;5084533;28;20050;-61
2022/02/03 17:20:22;;;;;;;6.75;4.50;;;;;;;6.09;88.07;97224.34;5093089;28;20048;-60
2022/02/03 17:22:51;;;;;;;7.35;4.88;;;;;;;6.09;87.54;97220.84;5084524;28;20040;-60
2022/02/03 17:25:30;;;;;;;6.85;4.90;;;;;;;6.08;87.47;97222.69;5083853;28;20101;-59
2022/02/03 17:28:04;;;;;;;6.60;5.30;;;;;;;6.19;87.13;97231.88;5080182;28;20093;-63
2022/02/03 17:30:48;;;;;;;7.55;4.78;;;;;;;6.21;86.03;97243.22;5076268;28;20101;-62
2022/02/03 18:37:43;;;;;;;11.02;7.05;;;;;;;5.23;89.32;97234.97;5072904;28;20040;-63
2022/02/03 18:54:12;;;;;;;10.57;5.47;;;;;;;5.10;86.93;97235.91;5072907;28;20505;-62
2022/02/03 19:14:08;;;;;;;8.68;5.78;;;;;;;4.11;89.59;97208.53;5078192;28;20110;-62
2022/02/03 19:15:57;;;;;;;11.52;5.97;;;;;;;4.07;90.33;97210.00;5087517;28;20743;-60
2022/02/03 19:57:03;;;;;;;16.30;9.60;;;;;;;2.79;92.55;97227.19;5079077;28;20117;-61
2022/02/03 20:02:12;;;;;;;19.05;11.05;;;;;;;3.05;92.94;97214.81;5080604;28;20101;-63
2022/02/03 20:04:46;;;;;;;16.15;11.25;;;;;;;3.17;92.74;97218.50;5073986;28;20114;-62
2022/02/03 20:07:23;;;;;;;18.92;12.90;;;;;;;3.20;92.34;97223.47;5070981;28;20036;-61
2022/02/03 20:10:05;;;;;;;20.27;12.02;;;;;;;3.04;92.21;97224.72;5080702;28;20565;-62
2022/02/03 20:12:32;;;;;;;23.63;16.77;;;;;;;3.05;92.88;97225.53;5077967;28;20060;-62
2022/02/03 20:14:59;;;;;;;17.35;10.52;;;;;;;2.94;92.79;97224.28;5078869;28;20392;-59
2022/02/03 20:17:28;;;;;;;15.57;9.70;;;;;;;2.99;93.13;97232.53;5076607;28;20048;-61
2022/02/03 20:19:55;;;;;;;17.13;11.13;;;;;;;3.09;93.55;97230.25;5077951;28;20044;-64
2022/02/03 20:22:27;;;;;;;18.38;10.98;;;;;;;3.23;93.02;97230.25;5073120;28;20055;-61
2022/02/03 20:24:54;;;;;;;13.82;9.73;;;;;;;3.15;92.57;97228.63;5082553;28;20536;-60
2022/02/03 20:27:21;;;;;;;16.27;10.20;;;;;;;3.11;92.66;97235.41;5078431;28;20040;-62
2022/02/03 20:29:49;;;;;;;19.00;11.20;;;;;;;3.38;92.20;97233.53;5074589;28;20044;-62
2022/02/03 20:32:17;;;;;;;16.15;10.07;;;;;;;3.33;91.58;97222.63;5075651;28;20110;-62
2022/02/03 20:34:45;;;;;;;14.77;9.63;;;;;;;3.24;91.90;97221.19;5074408;28;20048;-62
2022/02/03 20:37:13;;;;;;;15.32;9.48;;;;;;;3.18;92.08;97220.19;5096459;28;20633;-60
2022/02/03 20:39:40;;;;;;;14.63;9.50;;;;;;;3.09;92.60;97221.41;5079460;28;20089;-62
2022/02/03 20:42:07;;;;;;;20.52;11.65;;;;;;;3.18;92.73;97224.69;5079168;28;20522;-61
2022/02/03 20:44:33;;;;;;;20.10;11.52;;;;;;;3.18;92.64;97225.53;5077976;28;20702;-59
2022/02/03 20:47:00;;;;;;;19.83;12.23;;;;;;;3.18;92.75;97227.38;5072083;28;20051;-59
2022/02/03 20:49:27;;;;;;;17.90;10.55;;;;;;;3.25;92.68;97226.31;5097506;28;20043;-62
2022/02/03 20:51:55;;;;;;;23.08;14.38;;;;;;;3.27;92.31;97228.78;5084594;28;20048;-61
2022/02/03 20:54:21;;;;;;;21.25;9.85;;;;;;;3.11;92.11;97228.22;5078917;28;20048;-61
2022/02/03 20:56:48;;;;;;;16.77;9.40;;;;;;;3.06;92.21;97227.19;5072798;28;20048;-61
2022/02/03 20:59:15;;;;;;;17.27;10.70;;;;;;;3.15;92.83;97228.63;5084566;28;20040;-62
2022/02/03 21:01:48;;;;;;;23.00;11.98;;;;;;;3.19;92.73;97221.81;5083592;28;20461;-62
2022/02/03 21:04:28;;;;;;;20.70;12.43;;;;;;;3.14;92.80;97215.44;5075056;28;20131;-62
2022/02/03 21:06:55;;;;;;;19.63;10.95;;;;;;;3.25;92.64;97209.47;5078576;28;20704;-62
2022/02/03 21:09:21;;;;;;;16.48;11.20;;;;;;;3.20;92.59;97212.75;5076484;28;20040;-61
2022/02/03 21:11:48;;;;;;;17.40;10.88;;;;;;;3.25;92.59;97209.47;5079679;28;20518;-61
2022/02/03 21:14:15;;;;;;;19.73;10.65;;;;;;;3.21;92.69;97209.03;5065260;28;20106;-61
2022/02/03 21:16:43;;;;;;;17.45;11.02;;;;;;;3.21;92.69;97208.22;5078790;28;20127;-62
2022/02/03 21:19:10;;;;;;;17.55;9.35;;;;;;;3.20;92.63;97206.56;5074262;28;20044;-62
2022/02/03 21:21:39;;;;;;;17.95;10.20;;;;;;;3.25;92.73;97209.47;5076130;28;20044;-60
2022/02/03 21:24:06;;;;;;;19.73;10.63;;;;;;;3.32;93.18;97209.44;5067237;28;20106;-62
2022/02/03 21:26:37;;;;;;;15.95;9.63;;;;;;;3.32;92.76;97209.44;5079414;28;20097;-62
2022/02/03 21:29:04;;;;;;;20.95;11.65;;;;;;;3.40;93.80;97211.91;5081025;28;20452;-62
2022/02/03 21:31:31;;;;;;;19.23;10.40;;;;;;;3.42;93.11;97215.19;5085100;28;20036;-62
2022/02/03 21:33:58;;;;;;;17.67;10.02;;;;;;;3.45;92.77;97209.41;5088154;28;20054;-62
2022/02/03 21:36:26;;;;;;;18.75;11.05;;;;;;;3.51;92.64;97205.06;5094992;28;20054;-61
2022/02/03 21:38:54;;;;;;;17.15;11.23;;;;;;;3.46;92.60;97194.19;5066313;28;20045;-63
2022/02/03 21:41:20;;;;;;;19.73;11.25;;;;;;;3.53;92.86;97199.53;5081050;28;20032;-62
2022/02/03 21:43:50;;;;;;;21.75;12.15;;;;;;;3.62;92.99;97199.06;5073219;28;20695;-62
2022/02/03 21:46:17;;;;;;;18.77;11.90;;;;;;;3.88;92.46;97194.63;5081187;28;20044;-61
2022/02/03 21:48:49;;;;;;;20.13;12.13;;;;;;;3.94;91.38;97192.94;5081347;28;20105;-65
2022/02/03 21:51:24;;;;;;;21.33;11.90;;;;;;;3.89;92.54;97198.13;5088012;28;20044;-62
2022/02/03 21:53:51;;;;;;;21.50;11.48;;;;;;;3.97;91.63;97203.25;5090421;28;20557;-64
2022/02/03 21:56:19;;;;;;;19.48;11.57;;;;;;;3.95;91.53;97199.97;5087060;28;20039;-63
2022/02/03 21:58:46;;;;;;;18.90;11.32;;;;;;;4.02;92.38;97205.28;5091853;28;20051;-62
2022/02/03 22:01:13;;;;;;;19.10;11.15;;;;;;;4.15;92.48;97207.06;5098868;28;20055;-64
2022/02/03 22:03:39;;;;;;;23.02;12.32;;;;;;;4.32;92.74;97212.75;5083338;28;20453;-63
2022/02/03 22:06:06;;;;;;;18.85;13.27;;;;;;;4.47;91.42;97208.94;5089617;28;20201;-63
2022/02/03 22:08:33;;;;;;;17.08;10.60;;;;;;;4.55;91.26;97212.19;5089376;28;20121;-62
2022/02/03 22:11:02;;;;;;;15.57;10.07;;;;;;;4.66;90.75;97207.16;5081747;28;20044;-62
2022/02/03 22:13:37;;;;;;;16.85;10.63;;;;;;;4.72;90.82;97205.47;5080501;28;20426;-61
2022/02/03 22:16:15;;;;;;;16.33;10.63;;;;;;;4.76;90.27;97206.69;5097788;28;20162;-61
2022/02/03 22:18:41;;;;;;;15.20;10.17;;;;;;;4.87;89.91;97191.75;5098229;28;20626;-61
2022/02/03 22:21:34;;;;;;;15.40;10.18;;;;;;;4.87;89.61;97197.09;5084123;28;20048;-61
2022/02/03 22:24:08;;;;;;;15.75;9.60;;;;;;;4.80;89.79;97195.28;5100069;28;20081;-61
2022/02/03 22:45:18;;;;;;;15.60;9.55;;;;;;;4.88;88.71;97214.84;5064760;28;20044;-61
2022/02/03 22:50:18;;;;;;;13.13;9.60;;;;;;;4.93;88.38;97221.19;5086026;28;20032;-62
2022/02/03 22:52:45;;;;;;;13.35;8.70;;;;;;;4.97;87.78;97228.81;5080311;28;20048;-63
2022/02/03 22:55:13;;;;;;;11.25;7.85;;;;;;;5.02;87.63;97220.91;5089982;28;20081;-61
2022/02/03 22:57:44;;;;;;;10.93;7.63;;;;;;;5.01;87.25;97216.59;5080879;28;20051;-61
2022/02/03 23:00:17;;;;;;;12.82;7.60;;;;;;;4.95;87.16;97231.72;5080227;28;20036;-61
2022/02/03 23:02:43;;;;;;;9.15;6.20;;;;;;;4.92;87.01;97232.13;5079172;28;20461;-60
2022/02/03 23:05:12;;;;;;;9.38;6.53;;;;;;;4.92;86.34;97241.03;5078236;28;20458;-60
2022/02/03 23:10:19;;;;;;;10.32;6.13;;;;;;;4.93;86.14;97233.78;5084745;28;20465;-60
2022/02/03 23:15:31;;;;;;;9.55;6.43;;;;;;;4.91;86.34;97233.19;5084965;28;20040;-60
2022/02/03 23:18:52;;;;;;;9.48;6.53;;;;;;;4.90;85.96;97235.03;5086379;28;20051;-60
2022/02/03 23:21:01;;;;;;;10.75;6.63;;;;;;;4.91;86.70;97233.19;5072511;28;20431;-60